Historyczne dane pomiarowe

Dodano dane terminowe – wersja testowa.

Dane z okresu 1951-2019

Wersja bazy: 1.34 [2019-03-16, lista zmian], aktualizacja planowana na 2019-04-15

Dane meteo z obszaru Polski uzyskane na podstawie danych udostępnionych przez Instytut Meteorologii i Gospodarki Wodnej – Państwowy Instytut Badawczy.

 

Wybierz Datę:    

       

TemperaturaWilgotnośćWiatrCiśnienieOpadyŚniegCzas trwania zjawisk
 Stacja t tx tn tng RH VA  wxwx mslp ppp RRR   cm mm wxwxwxwxwxwxwx
1994-08-14 13.9 17.3 9.6 5.3 60.5- 2.0 3.3---- 0.0------------
1994-08-13 16.5 20.0 13.6 12.6 71.8- 6.0 3.0---- 0.0------------
1994-08-12 15.8 19.6 11.8 9.1 91.0- 8.0 1.0---- 6.0------------
1994-08-11 18.7 23.1 16.5 15.1 82.5- 5.0 2.0---- 0.0------------
1994-08-10 18.9 27.4 11.6 8.5 77.8- 1.0 1.0---- 21.0------------
1994-08-09 18.6 22.3 16.6 16.1 87.5- 5.0 1.0---- 21.6------------
1994-08-08 19.3 23.9 15.7 11.6 87.8- 7.7 1.0---- 23.4------------
1994-08-07 20.6 28.4 14.8 11.1 76.5- 5.0 1.0---- 24.1------------
1994-08-06 22.9 32.0 15.1 10.1 60.8- 2.7 1.0---- 0.2------------
1994-08-05 21.7 31.5 11.1 5.9 62.5- 1.3 1.0---- 0.0------------
1994-08-04 20.9 28.5 12.0 6.9 64.5- 0.0 1.3---- 0.0------------
1994-08-03 22.1 27.0 16.6 10.1 78.5- 2.0 0.7---- 0.0------------
1994-08-02 23.8 31.5 15.5 10.1 60.3- 1.0 1.3---- 2.1------------
1994-08-01 26.2 34.1 16.5 10.6 53.0- 0.0 1.0---- 0.0------------
1994-07-31 25.8 35.0 15.7 9.6 51.3- 0.0 1.0---- 0.0------------
1994-07-30 25.2 34.0 14.6 9.1 47.5- 0.0 1.0---- 0.0------------
1994-07-29 24.2 33.8 14.1 8.0 52.5- 0.3 0.7---- 0.0------------
1994-07-28 23.1 32.5 12.6 6.4 55.8- 0.0 1.0---- 0.0------------
1994-07-27 23.1 32.0 14.1 8.5 55.3- 0.0 1.0---- 0.0------------
1994-07-26 22.9 32.0 14.1 8.5 61.3- 0.7 0.7---- 0.0------------
1994-07-25 23.0 31.0 12.7 6.9 56.3- 1.0 0.3---- 0.0------------
1994-07-24 21.2 30.0 11.1 4.8 55.8- 0.3 1.0---- 0.0------------
1994-07-23 20.7 28.4 9.7 2.7 54.3- 0.0 1.0---- 0.0------------
1994-07-22 19.9 28.5 9.6 3.2 58.5- 0.0 1.0---- 0.0------------
1994-07-21 18.4 26.9 8.0 1.6 64.0- 0.0 1.7---- 0.0------------
1994-07-20 18.6 23.9 12.5 9.1 54.0- 0.0 2.0---- 0.0------------
1994-07-19 16.7 21.5 15.3 12.6 77.5- 8.0 1.7---- 0.0------------
1994-07-18 18.9 24.4 12.8 10.1 81.8- 3.0 1.3---- 0.0------------
1994-07-17 19.5 26.1 14.0 10.1 87.8- 6.0 0.0---- 4.4------------
1994-07-16 21.0 26.5 15.5 11.7 85.5- 5.0 1.0---- 5.6------------
1994-07-15 21.0 27.1 13.3 8.5 72.5- 3.0 1.0---- 0.0------------
1994-07-14 21.9 29.9 12.8 8.0 63.3- 0.0 1.0---- 0.0------------
1994-07-13 20.7 27.9 11.5 5.9 66.0- 0.0 1.7---- 0.0------------
1994-07-12 19.9 25.4 15.1 10.1 74.8- 4.0 1.3---- 0.0------------
1994-07-11 18.8 25.1 11.0 5.9 73.5- 2.7 1.0---- 0.0------------
1994-07-10 15.7 20.9 13.1 12.6 87.3- 6.0 1.7---- 0.3------------
1994-07-09 14.4 17.4 12.6 10.1 83.3- 8.0 1.7---- 15.3------------
1994-07-08 14.5 17.8 10.5 6.4 69.3- 6.3 3.0---- 1.5------------
1994-07-07 16.6 22.0 11.1 5.9 85.0- 5.7 1.0---- 5.9------------
1994-07-06 19.5 24.4 10.8 4.8 70.8- 2.0 1.0---- 0.0------------
1994-07-05 19.8 26.2 14.1 8.5 72.0- 4.0 1.3---- 0.6------------
1994-07-04 21.4 29.5 10.8 5.0 63.3- 0.0 1.0---- 0.0------------
1994-07-03 19.8 27.3 8.8 2.7 64.8- 0.0 1.0---- 0.0------------
1994-07-02 17.6 24.5 8.4 2.1 66.8- 0.0 1.0---- 0.0------------
1994-07-01 16.6 21.9 8.8 2.7 70.3- 0.0 1.0---- 0.0------------
1994-06-30 18.2 20.5 16.1 12.1 87.8- 7.0 1.0---- 0.3------------
1994-06-29 23.0 32.0 16.3 11.1 75.5- 2.0 1.0---- 12.4------------
1994-06-28 24.2 29.8 17.5 12.6 72.3- 2.7 1.3---- 0.0------------
1994-06-27 23.9 31.0 16.8 11.6 74.3- 0.0 1.0---- 0.0------------
1994-06-26 22.4 28.4 14.1 5.9 51.0- 0.0 4.0---- 0.0------------
1994-06-25 16.4 25.4 4.6 -2.3 58.5- 0.0 1.7---- 0.0------------
1994-06-24 14.1 21.5 3.8 -2.3 57.0- 0.0 1.3---- 0.0------------
1994-06-23 17.2 22.6 14.0 10.1 50.5- 1.0 2.7---- 0.0------------
1994-06-22 18.5 24.4 10.7 4.8 71.0- 6.0 2.0---- 0.0------------
1994-06-21 15.5 22.3 6.1 -0.9 71.0- 0.0 1.0---- 0.0------------
1994-06-20 15.3 22.5 8.7 3.2 75.8- 5.7 1.3---- 0.0------------
1994-06-19 18.8 25.4 12.0 9.6 64.8- 3.7 2.7---- 0.0------------
1994-06-18 12.5 18.4 1.9 -3.8 77.5- 6.0 1.3---- 0.2------------
1994-06-17 10.7 13.4 7.3 4.8 77.5- 5.0 1.7---- 1.7------------
1994-06-16 11.0 16.0 4.6 -1.4 76.8- 8.0 2.0---- 6.4------------
214.0 ms

 

Źródłem pochodzenia danych jest Instytut Meteorologii i Gospodarki Wodnej – Państwowy Instytut Badawczy. Dane Instytutu Meteorologii i Gospodarki Wodnej – Państwowego Instytutu Badawczego zostały przetworzone.

Dane źródłowe można odnaleźć na stronie https://dane.imgw.pl